createdAt,value
2019-03-16T17:05:01.467Z,1.20
2019-03-16T17:10:01.890Z,1.55
2019-03-16T17:15:01.059Z,1.91
2019-03-16T17:20:01.699Z,1.43
2019-03-16T17:25:01.048Z,1.40
2019-03-16T17:30:01.505Z,1.27
2019-03-16T17:35:01.064Z,1.13
2019-03-16T17:40:01.513Z,0.95
2019-03-16T17:45:01.508Z,1.77
2019-03-16T17:50:01.682Z,1.18
2019-03-16T17:55:01.483Z,1.15
2019-03-16T18:00:01.696Z,0.97
2019-03-16T18:05:01.047Z,0.95
2019-03-16T18:10:01.525Z,1.79
2019-03-16T18:15:01.060Z,1.33
2019-03-16T18:20:01.524Z,1.12
2019-03-16T18:25:01.053Z,1.35
2019-03-16T18:30:01.696Z,1.51
2019-03-16T18:35:01.030Z,1.60
2019-03-16T18:40:01.731Z,1.40
2019-03-16T18:45:01.029Z,0.65
2019-03-16T18:50:01.538Z,0.45
2019-03-16T18:55:01.037Z,0.46
2019-03-16T19:00:01.721Z,0.93
2019-03-16T19:05:01.189Z,0.68
2019-03-16T19:10:02.336Z,1.40
2019-03-16T19:15:01.198Z,1.05
2019-03-16T19:20:01.594Z,1.01
2019-03-16T19:25:01.075Z,1.04
2019-03-16T19:30:01.599Z,0.49
2019-03-16T19:35:01.055Z,0.51
2019-03-16T19:40:01.593Z,0.35
2019-03-16T19:45:01.453Z,0.55
2019-03-16T19:50:01.621Z,0.61
2019-03-16T19:55:01.116Z,0.97
2019-03-16T20:00:01.719Z,1.03
2019-03-16T20:05:01.757Z,0.93
2019-03-16T20:10:01.648Z,0.87
2019-03-16T20:15:01.084Z,0.39
2019-03-16T20:20:01.656Z,0.94
2019-03-16T20:25:01.081Z,1.17
2019-03-16T20:30:01.593Z,1.10
2019-03-16T20:35:01.119Z,0.68
2019-03-16T20:40:01.711Z,0.36
2019-03-16T20:45:01.168Z,0.66
2019-03-16T20:50:01.737Z,0.69
2019-03-16T20:55:01.086Z,0.85
2019-03-16T21:00:01.635Z,0.60
2019-03-16T21:05:01.150Z,1.12
2019-03-16T21:10:01.658Z,0.42
2019-03-16T21:15:01.812Z,0.53
2019-03-16T21:20:01.749Z,0.20
2019-03-16T21:25:01.106Z,0.00
2019-03-16T21:30:01.758Z,0.17
2019-03-16T21:35:01.100Z,0.15
2019-03-16T21:40:01.637Z,0.20
2019-03-16T21:45:01.124Z,0.00
2019-03-16T21:50:01.722Z,0.68
2019-03-16T21:55:01.189Z,0.97
2019-03-16T22:00:01.798Z,1.39
2019-03-16T22:05:01.102Z,1.17
2019-03-16T22:10:01.727Z,1.04
2019-03-16T22:15:01.061Z,0.98
2019-03-16T22:20:01.721Z,0.61
2019-03-16T22:25:01.087Z,0.34
2019-03-16T22:30:01.777Z,0.00
2019-03-16T22:35:01.068Z,0.07
2019-03-16T22:40:01.741Z,0.25
2019-03-16T22:45:01.540Z,0.25
2019-03-16T22:50:01.656Z,0.26
2019-03-16T22:55:01.394Z,0.08
2019-03-16T23:00:01.685Z,0.03
2019-03-16T23:05:01.057Z,0.35
2019-03-16T23:10:01.841Z,0.25
2019-03-16T23:15:01.115Z,0.80
2019-03-16T23:20:01.667Z,0.93
2019-03-16T23:25:01.100Z,1.11
2019-03-16T23:30:01.691Z,1.05
2019-03-16T23:35:01.101Z,0.67
2019-03-16T23:40:01.732Z,0.40
2019-03-16T23:45:01.502Z,0.30
2019-03-16T23:50:01.722Z,0.81
2019-03-16T23:55:01.103Z,0.35
